createdAt,value
2024-01-29T00:01:17.199Z,10.70
2024-01-29T00:03:52.534Z,11.30
2024-01-29T00:06:20.817Z,10.90
2024-01-29T00:08:49.139Z,12.00
2024-01-29T00:11:17.818Z,10.60
2024-01-29T00:13:47.573Z,11.40
2024-01-29T00:16:16.038Z,11.10
2024-01-29T00:18:44.381Z,13.30
2024-01-29T00:21:14.330Z,11.80
2024-01-29T00:23:42.481Z,11.30
2024-01-29T00:26:11.006Z,11.50
2024-01-29T00:28:39.138Z,11.60
2024-01-29T00:31:08.684Z,11.90
2024-01-29T00:33:37.604Z,11.80
2024-01-29T00:36:06.109Z,11.70
2024-01-29T00:38:34.696Z,12.80
2024-01-29T00:41:02.818Z,12.60
2024-01-29T00:43:30.882Z,12.60
2024-01-29T00:45:59.201Z,13.10
2024-01-29T00:48:27.553Z,13.00
2024-01-29T00:50:57.097Z,13.00
2024-01-29T00:53:25.581Z,12.40
2024-01-29T00:55:55.237Z,12.40
2024-01-29T00:58:23.363Z,11.80
2024-01-29T01:00:52.400Z,12.20
2024-01-29T01:03:21.062Z,11.90
2024-01-29T01:05:49.691Z,12.10
2024-01-29T01:08:18.951Z,12.10
2024-01-29T01:10:47.399Z,11.80
2024-01-29T01:13:15.489Z,13.10
2024-01-29T01:15:43.661Z,11.50
2024-01-29T01:18:12.560Z,12.10
2024-01-29T01:20:40.952Z,12.30
2024-01-29T01:23:09.196Z,11.80
2024-01-29T01:25:37.684Z,12.90
2024-01-29T01:28:07.861Z,13.60
2024-01-29T01:30:36.117Z,13.20
2024-01-29T01:33:04.914Z,12.30
2024-01-29T01:35:33.071Z,11.40
2024-01-29T01:38:01.463Z,11.50
2024-01-29T01:40:29.606Z,11.80
2024-01-29T01:42:57.800Z,10.50
2024-01-29T01:45:26.095Z,11.10
2024-01-29T01:47:54.680Z,11.30
2024-01-29T01:50:23.406Z,9.90
2024-01-29T01:52:51.472Z,10.60
2024-01-29T01:55:19.756Z,10.30
2024-01-29T01:57:48.173Z,10.30
2024-01-29T02:00:17.434Z,10.10
2024-01-29T02:02:45.496Z,10.50
2024-01-29T02:05:13.953Z,10.30
2024-01-29T02:07:42.696Z,10.10
2024-01-29T02:10:11.432Z,9.40
2024-01-29T02:12:39.669Z,10.70
2024-01-29T02:15:09.657Z,10.10
2024-01-29T02:17:38.053Z,9.90
2024-01-29T02:20:08.205Z,10.00
2024-01-29T02:22:41.850Z,9.80
2024-01-29T02:25:10.178Z,9.30
2024-01-29T02:27:38.547Z,8.60
2024-01-29T02:30:07.435Z,8.60
2024-01-29T02:32:35.799Z,9.60
2024-01-29T02:35:04.657Z,9.10
2024-01-29T02:37:32.965Z,9.60
2024-01-29T02:40:01.174Z,9.10
2024-01-29T02:42:29.825Z,8.00
2024-01-29T02:44:58.095Z,9.40
2024-01-29T02:47:26.779Z,8.90
2024-01-29T02:49:55.156Z,8.90
2024-01-29T02:52:23.690Z,9.50
2024-01-29T02:54:51.928Z,9.30
2024-01-29T02:57:25.442Z,8.50
2024-01-29T02:59:55.008Z,8.20
2024-01-29T03:02:23.068Z,8.50
2024-01-29T03:04:51.480Z,8.20
2024-01-29T03:07:19.821Z,8.70
2024-01-29T03:09:48.024Z,8.70
2024-01-29T03:12:16.407Z,7.90
2024-01-29T03:14:44.558Z,8.40
2024-01-29T03:17:12.822Z,7.80
2024-01-29T03:19:41.675Z,8.20
2024-01-29T03:22:10.062Z,8.30
2024-01-29T03:24:38.403Z,8.70
2024-01-29T03:27:06.848Z,9.20
2024-01-29T03:29:34.966Z,9.00
2024-01-29T03:32:03.322Z,9.50
2024-01-29T03:34:31.529Z,10.00
2024-01-29T03:36:59.873Z,9.20
2024-01-29T03:39:28.182Z,9.10
2024-01-29T03:41:56.419Z,8.50
2024-01-29T03:44:24.784Z,8.80
2024-01-29T03:46:53.162Z,8.50
2024-01-29T03:49:21.529Z,8.70
2024-01-29T03:51:49.688Z,8.50
2024-01-29T03:54:17.885Z,7.70
2024-01-29T03:56:45.996Z,8.40
2024-01-29T03:59:14.351Z,8.00
2024-01-29T04:01:42.949Z,8.30
2024-01-29T04:04:12.535Z,8.30
2024-01-29T04:06:42.119Z,8.00
2024-01-29T04:09:10.942Z,7.80
2024-01-29T04:11:39.524Z,8.00
2024-01-29T04:14:07.574Z,7.90
2024-01-29T04:16:35.963Z,7.70
2024-01-29T04:19:04.136Z,7.60
2024-01-29T04:21:32.304Z,7.60
2024-01-29T04:24:00.535Z,7.70
2024-01-29T04:26:28.953Z,7.10
2024-01-29T04:28:57.116Z,7.80
2024-01-29T04:31:25.508Z,7.30
2024-01-29T04:33:53.822Z,8.10
2024-01-29T04:36:22.073Z,8.00
2024-01-29T04:38:50.877Z,7.30
2024-01-29T04:41:20.276Z,8.00
2024-01-29T04:43:48.423Z,8.10
2024-01-29T04:46:17.689Z,8.50
2024-01-29T04:48:46.189Z,8.60
2024-01-29T04:51:14.671Z,8.50
2024-01-29T04:53:43.258Z,8.80
2024-01-29T04:56:11.262Z,8.00
2024-01-29T04:58:39.510Z,8.30
2024-01-29T05:01:07.685Z,8.50
2024-01-29T05:03:36.421Z,7.90
2024-01-29T05:06:04.913Z,8.10
2024-01-29T05:08:33.117Z,7.10
2024-01-29T05:11:01.398Z,7.80
2024-01-29T05:13:29.742Z,6.60
2024-01-29T05:15:58.112Z,6.30
2024-01-29T05:18:26.476Z,6.50
2024-01-29T05:20:55.032Z,5.70
2024-01-29T05:23:23.281Z,6.60
2024-01-29T05:25:51.382Z,6.40
2024-01-29T05:28:20.014Z,6.60
2024-01-29T05:30:47.997Z,6.50
2024-01-29T05:33:25.273Z,5.70
2024-01-29T05:35:56.592Z,6.00
2024-01-29T05:38:26.269Z,6.60
2024-01-29T05:40:54.445Z,5.90
2024-01-29T05:43:22.907Z,6.50
2024-01-29T05:45:51.154Z,5.80
2024-01-29T05:48:20.940Z,6.50
2024-01-29T05:50:49.293Z,5.70
2024-01-29T05:53:21.666Z,6.20
2024-01-29T05:55:50.425Z,6.20
2024-01-29T05:58:18.991Z,6.70
2024-01-29T06:00:47.351Z,6.80
2024-01-29T06:03:15.660Z,6.50
2024-01-29T06:05:44.189Z,6.30
2024-01-29T06:08:12.465Z,7.50
2024-01-29T06:10:41.113Z,6.90
2024-01-29T06:13:09.713Z,6.90
2024-01-29T06:15:38.371Z,6.80
2024-01-29T06:18:07.490Z,7.30
2024-01-29T06:20:35.837Z,6.90
2024-01-29T06:23:04.765Z,6.70
2024-01-29T06:25:33.226Z,6.80
2024-01-29T06:28:01.645Z,6.90
2024-01-29T06:30:29.883Z,7.30
2024-01-29T06:32:58.810Z,6.80
2024-01-29T06:35:27.152Z,7.30
2024-01-29T06:37:55.428Z,7.40
2024-01-29T06:40:28.641Z,7.20
2024-01-29T06:42:58.406Z,5.80
2024-01-29T06:45:30.105Z,6.00
2024-01-29T06:47:59.540Z,5.30
2024-01-29T06:50:27.752Z,5.00
2024-01-29T06:52:56.113Z,4.90
2024-01-29T06:55:24.769Z,4.80
2024-01-29T06:57:53.046Z,4.30
2024-01-29T07:00:21.683Z,4.90
2024-01-29T07:02:49.881Z,4.70
2024-01-29T07:05:18.340Z,4.90
2024-01-29T07:07:46.588Z,5.10
2024-01-29T07:10:16.208Z,4.70
2024-01-29T07:12:44.651Z,4.40
2024-01-29T07:15:15.380Z,4.70
2024-01-29T07:17:43.629Z,9.60
2024-01-29T07:20:12.534Z,32.00
2024-01-29T07:22:41.012Z,9.70
2024-01-29T07:25:09.940Z,6.40
2024-01-29T07:27:38.349Z,4.90
2024-01-29T07:30:07.605Z,4.50
2024-01-29T07:32:35.910Z,4.50
2024-01-29T07:35:05.386Z,4.30
2024-01-29T07:37:34.122Z,4.70
2024-01-29T07:40:04.950Z,4.80
2024-01-29T07:42:33.692Z,5.50
2024-01-29T07:45:02.941Z,4.80
2024-01-29T07:47:31.282Z,5.20
2024-01-29T07:49:59.536Z,5.00
2024-01-29T07:52:27.976Z,4.80
2024-01-29T07:54:56.778Z,4.50
2024-01-29T07:57:26.637Z,4.50
2024-01-29T07:59:54.844Z,4.10
2024-01-29T08:02:23.207Z,4.20
2024-01-29T08:04:51.911Z,4.20
2024-01-29T08:07:20.408Z,4.50
2024-01-29T08:09:49.112Z,4.50
2024-01-29T08:12:17.352Z,4.20
2024-01-29T08:14:45.725Z,4.80
2024-01-29T08:17:14.026Z,4.70
2024-01-29T08:19:42.594Z,4.20
2024-01-29T08:22:10.972Z,5.20
2024-01-29T08:24:40.010Z,4.80
2024-01-29T08:27:08.241Z,4.90
2024-01-29T08:29:36.683Z,4.60
2024-01-29T08:32:05.723Z,4.90
2024-01-29T08:34:34.283Z,5.00
2024-01-29T08:37:02.690Z,5.60
2024-01-29T08:39:32.083Z,4.70
2024-01-29T08:42:00.606Z,5.90
2024-01-29T08:44:29.261Z,5.30
2024-01-29T08:46:57.433Z,5.90
2024-01-29T08:49:25.821Z,5.40
2024-01-29T08:51:54.053Z,5.50
2024-01-29T08:54:22.354Z,5.90
2024-01-29T08:56:50.521Z,6.60
2024-01-29T08:59:22.166Z,6.40
2024-01-29T09:01:50.676Z,6.40
2024-01-29T09:04:19.139Z,6.40
2024-01-29T09:06:47.343Z,6.30
2024-01-29T09:09:15.575Z,6.10
2024-01-29T09:11:44.161Z,7.00
2024-01-29T09:14:14.213Z,5.60
2024-01-29T09:16:42.367Z,6.10
2024-01-29T09:19:11.005Z,5.80
2024-01-29T09:21:39.606Z,5.60
2024-01-29T09:24:08.003Z,6.60
2024-01-29T09:26:36.164Z,6.30
2024-01-29T09:29:05.197Z,5.70
2024-01-29T09:31:34.132Z,6.60
2024-01-29T09:34:04.339Z,7.00
2024-01-29T09:36:33.132Z,6.40
2024-01-29T09:39:01.749Z,5.80
2024-01-29T09:41:35.006Z,5.90
2024-01-29T09:44:07.835Z,5.40
2024-01-29T09:46:39.293Z,5.40
2024-01-29T09:49:08.864Z,5.40
2024-01-29T09:51:37.416Z,5.30
2024-01-29T09:54:06.690Z,5.70
2024-01-29T09:56:34.847Z,5.20
2024-01-29T09:59:04.461Z,5.50
2024-01-29T10:01:33.874Z,5.50
2024-01-29T10:04:02.198Z,5.70
2024-01-29T10:06:33.553Z,5.60
2024-01-29T10:09:02.212Z,5.60
2024-01-29T10:11:31.250Z,5.70
2024-01-29T10:14:00.952Z,5.30
2024-01-29T10:16:29.581Z,4.90
2024-01-29T10:18:59.590Z,4.60
2024-01-29T10:21:28.644Z,4.90
2024-01-29T10:23:58.384Z,5.50
2024-01-29T10:26:28.191Z,5.70
2024-01-29T10:29:07.927Z,5.50
2024-01-29T10:31:37.317Z,5.40
2024-01-29T10:34:07.259Z,5.70
2024-01-29T10:36:40.184Z,5.20
2024-01-29T10:39:13.446Z,5.90
2024-01-29T10:41:44.344Z,5.50
2024-01-29T10:44:17.743Z,5.70
2024-01-29T10:46:48.677Z,4.50
2024-01-29T10:49:17.272Z,4.70
2024-01-29T10:51:49.268Z,5.10
2024-01-29T10:54:17.859Z,5.70
2024-01-29T10:56:46.237Z,5.10
2024-01-29T10:59:15.486Z,5.50
2024-01-29T11:01:52.208Z,5.40
2024-01-29T11:04:26.990Z,6.00
2024-01-29T11:07:06.007Z,4.80
2024-01-29T11:09:35.590Z,5.00
2024-01-29T11:12:06.615Z,5.30
2024-01-29T11:14:34.758Z,4.70
2024-01-29T11:17:02.937Z,5.50
2024-01-29T11:19:34.679Z,5.40
2024-01-29T11:22:02.978Z,5.50
2024-01-29T11:24:34.212Z,4.60
2024-01-29T11:27:13.666Z,4.80
2024-01-29T11:29:46.007Z,4.90
2024-01-29T11:32:17.261Z,4.90
2024-01-29T11:34:45.570Z,5.30
2024-01-29T11:37:16.327Z,5.50
2024-01-29T11:39:46.515Z,4.70
2024-01-29T11:42:16.011Z,4.80
2024-01-29T11:44:44.372Z,4.70
2024-01-29T11:47:12.540Z,5.60
2024-01-29T11:49:42.208Z,5.70
2024-01-29T11:52:11.950Z,5.30
2024-01-29T11:54:40.281Z,5.60
2024-01-29T11:57:08.726Z,5.50
2024-01-29T11:59:46.794Z,4.90
2024-01-29T12:02:15.275Z,5.00
2024-01-29T12:04:43.614Z,5.10
2024-01-29T12:07:12.556Z,4.80
2024-01-29T12:09:40.874Z,4.70
2024-01-29T12:12:09.943Z,5.20
2024-01-29T12:14:38.123Z,4.90
2024-01-29T12:17:08.065Z,4.90
2024-01-29T12:19:36.520Z,5.10
2024-01-29T12:22:05.761Z,4.90
2024-01-29T12:24:33.966Z,4.80
2024-01-29T12:27:02.299Z,5.20
2024-01-29T12:29:30.738Z,4.70
2024-01-29T12:32:07.754Z,5.10
2024-01-29T12:34:44.477Z,4.90
2024-01-29T12:39:55.860Z,4.80
2024-01-29T12:42:30.346Z,5.00
2024-01-29T12:45:09.858Z,4.90
2024-01-29T12:47:38.395Z,4.60
2024-01-29T12:50:06.784Z,5.00
2024-01-29T12:52:35.133Z,4.70
2024-01-29T12:55:04.066Z,5.40
2024-01-29T12:57:32.388Z,5.30
2024-01-29T13:00:00.574Z,5.80
2024-01-29T13:02:29.212Z,5.00
2024-01-29T13:04:57.455Z,4.60
2024-01-29T13:07:26.814Z,4.80
2024-01-29T13:09:56.332Z,4.50
2024-01-29T13:12:24.494Z,5.20
2024-01-29T13:14:52.763Z,5.40
2024-01-29T13:17:20.768Z,5.70
2024-01-29T13:19:49.169Z,5.50
2024-01-29T13:22:17.365Z,5.30
2024-01-29T13:24:45.642Z,5.80
2024-01-29T13:27:14.676Z,5.40
2024-01-29T13:29:43.625Z,5.90
2024-01-29T13:32:11.799Z,6.20
2024-01-29T13:34:39.956Z,6.30
2024-01-29T13:37:08.405Z,6.20
2024-01-29T13:39:37.249Z,5.80
2024-01-29T13:42:05.826Z,5.60
2024-01-29T13:44:34.302Z,6.80
2024-01-29T13:47:02.413Z,6.50
2024-01-29T13:49:31.204Z,6.30
2024-01-29T13:51:59.388Z,5.70
2024-01-29T13:54:29.356Z,5.30
2024-01-29T13:56:57.750Z,5.40
2024-01-29T13:59:26.541Z,6.20
2024-01-29T14:01:54.839Z,6.00
2024-01-29T14:04:23.181Z,5.50
2024-01-29T14:07:02.697Z,4.90
2024-01-29T14:09:31.086Z,5.50
2024-01-29T14:11:59.547Z,5.30
2024-01-29T14:14:34.433Z,5.50
2024-01-29T14:17:08.943Z,5.20
2024-01-29T14:19:37.324Z,5.40
2024-01-29T14:22:05.856Z,5.80
2024-01-29T14:24:34.608Z,5.80
2024-01-29T14:27:02.866Z,6.30
2024-01-29T14:29:31.126Z,6.50
2024-01-29T14:31:59.318Z,6.80
2024-01-29T14:34:27.684Z,8.40
2024-01-29T14:36:56.063Z,9.60
2024-01-29T14:39:24.433Z,9.00
2024-01-29T14:41:53.319Z,10.20
2024-01-29T14:44:21.510Z,9.30
2024-01-29T14:46:49.823Z,9.40
2024-01-29T14:49:18.059Z,8.70
2024-01-29T14:51:47.400Z,9.50
2024-01-29T14:54:15.723Z,10.90
2024-01-29T14:56:44.217Z,11.10
2024-01-29T14:59:12.377Z,11.80
2024-01-29T15:01:41.501Z,12.00
2024-01-29T15:04:13.329Z,13.10
2024-01-29T15:06:42.221Z,12.50
2024-01-29T15:09:11.810Z,12.00
2024-01-29T15:11:40.156Z,12.60
2024-01-29T15:14:08.392Z,12.30
2024-01-29T15:16:36.768Z,11.00
2024-01-29T15:19:05.036Z,10.90
2024-01-29T15:21:33.273Z,10.80
2024-01-29T15:24:01.419Z,10.40
2024-01-29T15:26:30.115Z,10.20
2024-01-29T15:28:58.657Z,9.50
2024-01-29T15:31:32.142Z,9.90
2024-01-29T15:34:00.507Z,11.40
2024-01-29T15:36:28.938Z,10.60
2024-01-29T15:38:57.082Z,16.50
2024-01-29T15:41:25.876Z,13.60
2024-01-29T15:43:54.042Z,14.80
2024-01-29T15:46:23.204Z,15.90
2024-01-29T15:48:51.695Z,19.10
2024-01-29T15:51:23.610Z,19.20
2024-01-29T15:53:53.812Z,19.10
2024-01-29T15:56:21.905Z,25.80
2024-01-29T15:58:50.363Z,26.10
2024-01-29T16:01:18.462Z,30.40
2024-01-29T16:03:46.758Z,27.70
2024-01-29T16:06:15.323Z,25.00
2024-01-29T16:08:45.306Z,23.60
2024-01-29T16:11:13.621Z,23.10
2024-01-29T16:13:41.758Z,21.10
2024-01-29T16:16:14.801Z,19.30
2024-01-29T16:18:44.770Z,19.30
2024-01-29T16:21:19.916Z,20.30
2024-01-29T16:23:48.377Z,19.20
2024-01-29T16:26:20.953Z,18.00
2024-01-29T16:36:44.505Z,17.40
2024-01-29T16:39:12.765Z,15.20
2024-01-29T16:41:41.019Z,17.00
2024-01-29T16:44:12.111Z,20.90
2024-01-29T16:46:43.206Z,23.20
2024-01-29T16:49:11.392Z,22.80
2024-01-29T16:51:39.800Z,24.10
2024-01-29T16:54:08.026Z,19.90
2024-01-29T16:56:38.770Z,19.50
2024-01-29T16:59:09.062Z,18.30
2024-01-29T17:01:37.733Z,19.10
2024-01-29T17:04:06.227Z,16.00
2024-01-29T17:06:35.584Z,16.10
2024-01-29T17:09:04.141Z,17.10
2024-01-29T17:11:32.445Z,18.00
2024-01-29T17:14:01.168Z,17.70
2024-01-29T17:16:29.475Z,18.50
2024-01-29T17:18:57.878Z,18.00
2024-01-29T17:21:27.975Z,26.30
2024-01-29T17:23:56.696Z,24.30
2024-01-29T17:26:24.947Z,19.00
2024-01-29T17:28:54.669Z,18.20
2024-01-29T17:31:22.949Z,18.80
2024-01-29T17:33:51.683Z,20.00
2024-01-29T17:36:21.212Z,29.70
2024-01-29T17:38:49.489Z,18.10
2024-01-29T17:41:17.585Z,19.10
2024-01-29T17:43:46.929Z,24.90
2024-01-29T17:46:16.579Z,25.70
2024-01-29T17:48:45.000Z,30.50
2024-01-29T17:51:13.428Z,34.30
2024-01-29T17:53:41.593Z,57.80
2024-01-29T17:56:09.828Z,25.00
2024-01-29T17:58:38.053Z,31.70
2024-01-29T18:01:09.006Z,41.90
2024-01-29T18:03:37.422Z,23.00
2024-01-29T18:06:06.898Z,25.10
2024-01-29T18:08:37.118Z,42.50
2024-01-29T18:11:05.429Z,29.40
2024-01-29T18:13:33.659Z,61.80
2024-01-29T18:16:01.856Z,25.90
2024-01-29T18:18:30.166Z,28.10
2024-01-29T18:20:59.541Z,44.10
2024-01-29T18:23:27.619Z,43.30
2024-01-29T18:25:55.971Z,55.10
2024-01-29T18:28:24.298Z,31.90
2024-01-29T18:30:52.736Z,28.10
2024-01-29T18:33:21.082Z,36.90
2024-01-29T18:35:49.298Z,25.70
2024-01-29T18:38:17.521Z,37.90
2024-01-29T18:40:45.593Z,67.60
2024-01-29T18:43:14.013Z,36.40
2024-01-29T18:45:42.273Z,35.00
2024-01-29T18:48:10.478Z,37.40
2024-01-29T18:50:38.822Z,35.40
2024-01-29T18:53:07.692Z,33.60
2024-01-29T18:55:35.907Z,32.40
2024-01-29T18:58:04.616Z,35.20
2024-01-29T19:00:32.850Z,30.30
2024-01-29T19:03:01.591Z,28.40
2024-01-29T19:05:30.360Z,26.70
2024-01-29T19:07:58.591Z,27.20
2024-01-29T19:10:26.923Z,22.60
2024-01-29T19:12:55.710Z,21.60
2024-01-29T19:15:25.449Z,19.40
2024-01-29T19:17:53.650Z,21.60
2024-01-29T19:20:21.864Z,25.70
2024-01-29T19:22:50.458Z,25.20
2024-01-29T19:25:18.658Z,38.20
2024-01-29T19:27:47.684Z,33.90
2024-01-29T19:30:16.493Z,38.30
2024-01-29T19:32:44.711Z,35.50
2024-01-29T19:35:13.141Z,34.40
2024-01-29T19:37:41.572Z,37.20
2024-01-29T19:40:11.298Z,33.10
2024-01-29T19:42:39.854Z,31.10
2024-01-29T19:45:10.603Z,31.40
2024-01-29T19:47:38.796Z,30.10
2024-01-29T19:50:13.031Z,30.60
2024-01-29T19:52:41.204Z,29.00
2024-01-29T19:55:09.431Z,26.60
2024-01-29T19:57:39.117Z,27.80
2024-01-29T20:00:09.808Z,28.00
2024-01-29T20:02:39.942Z,27.80
2024-01-29T20:05:09.173Z,28.00
2024-01-29T20:07:38.006Z,27.30
2024-01-29T20:10:07.807Z,26.90
2024-01-29T20:12:35.995Z,27.80
2024-01-29T20:15:04.471Z,26.20
2024-01-29T20:17:32.654Z,26.70
2024-01-29T20:20:00.877Z,23.60
2024-01-29T20:22:30.093Z,23.30
2024-01-29T20:24:58.215Z,24.20
2024-01-29T20:27:26.647Z,21.90
2024-01-29T20:29:55.481Z,21.60
2024-01-29T20:32:26.471Z,21.50
2024-01-29T20:34:55.307Z,21.40
2024-01-29T20:37:23.718Z,22.10
2024-01-29T20:39:52.012Z,22.70
2024-01-29T20:42:20.402Z,22.00
2024-01-29T20:44:49.090Z,23.80
2024-01-29T20:47:17.185Z,23.00
2024-01-29T20:49:46.680Z,24.10
2024-01-29T20:52:14.914Z,23.80
2024-01-29T20:54:45.032Z,24.90
2024-01-29T20:57:13.652Z,24.40
2024-01-29T20:59:41.873Z,22.80
2024-01-29T21:02:13.349Z,22.50
2024-01-29T21:04:42.923Z,21.60
2024-01-29T21:07:11.511Z,21.40
2024-01-29T21:09:39.868Z,22.10
2024-01-29T21:12:08.382Z,23.40
2024-01-29T21:14:36.486Z,23.70
2024-01-29T21:17:05.609Z,23.50
2024-01-29T21:19:34.564Z,24.40
2024-01-29T21:22:03.332Z,23.60
2024-01-29T21:24:36.104Z,24.10
2024-01-29T21:27:04.854Z,24.90
2024-01-29T21:29:33.312Z,25.20
2024-01-29T21:32:01.398Z,22.60
2024-01-29T21:34:30.250Z,23.50
2024-01-29T21:36:59.826Z,22.80
2024-01-29T21:39:28.261Z,22.80
2024-01-29T21:41:56.535Z,21.40
2024-01-29T21:44:26.931Z,22.10
2024-01-29T21:46:55.648Z,21.90
2024-01-29T21:49:23.871Z,24.30
2024-01-29T21:51:53.647Z,23.40
2024-01-29T21:54:22.526Z,24.00
2024-01-29T21:56:50.627Z,24.70
2024-01-29T21:59:19.281Z,24.30
2024-01-29T22:01:47.692Z,25.70
2024-01-29T22:04:16.439Z,27.40
2024-01-29T22:06:45.186Z,27.60
2024-01-29T22:09:13.726Z,24.70
2024-01-29T22:11:41.780Z,22.80
2024-01-29T22:14:10.509Z,23.30
2024-01-29T22:16:38.849Z,23.30
2024-01-29T22:19:07.830Z,23.20
2024-01-29T22:21:36.553Z,21.00
2024-01-29T22:24:05.117Z,22.50
2024-01-29T22:26:33.377Z,20.90
2024-01-29T22:29:01.447Z,23.00
2024-01-29T22:31:29.671Z,23.40
2024-01-29T22:33:58.722Z,23.60
2024-01-29T22:36:29.358Z,23.50
2024-01-29T22:38:59.600Z,23.40
2024-01-29T22:41:28.177Z,22.70
2024-01-29T22:43:56.223Z,23.20
2024-01-29T22:46:24.448Z,22.20
2024-01-29T22:48:55.145Z,21.50
2024-01-29T22:51:27.846Z,26.80
2024-01-29T22:53:56.090Z,22.30
2024-01-29T22:56:24.392Z,23.10
2024-01-29T22:58:52.636Z,22.10
2024-01-29T23:01:21.745Z,20.90
2024-01-29T23:03:49.968Z,20.60
2024-01-29T23:06:18.418Z,20.50
2024-01-29T23:08:46.643Z,22.50
2024-01-29T23:11:14.757Z,22.90
2024-01-29T23:13:43.018Z,23.40
2024-01-29T23:16:11.849Z,22.60
2024-01-29T23:18:41.680Z,23.60
2024-01-29T23:21:10.023Z,22.70
2024-01-29T23:23:38.216Z,24.20
2024-01-29T23:26:06.457Z,23.00
2024-01-29T23:28:35.948Z,21.20
2024-01-29T23:31:04.308Z,20.80
2024-01-29T23:33:32.727Z,21.00
2024-01-29T23:36:00.987Z,20.60
2024-01-29T23:38:29.254Z,19.40
2024-01-29T23:40:58.273Z,20.60
2024-01-29T23:43:26.442Z,21.50
2024-01-29T23:45:54.697Z,22.20
2024-01-29T23:48:22.823Z,21.30
2024-01-29T23:50:51.162Z,22.10
2024-01-29T23:53:19.330Z,22.10
2024-01-29T23:55:48.312Z,22.30
2024-01-29T23:58:16.632Z,21.20
